createdAt,value
2019-03-26T00:04:08.734Z,74.60
2019-03-26T00:09:06.544Z,75.10
2019-03-26T00:14:02.790Z,76.00
2019-03-26T00:18:58.892Z,76.10
2019-03-26T00:23:56.476Z,77.10
2019-03-26T00:28:52.651Z,78.00
2019-03-26T00:33:48.884Z,79.40
2019-03-26T00:38:45.125Z,79.80
2019-03-26T00:43:41.482Z,80.80
2019-03-26T00:48:37.723Z,81.40
2019-03-26T00:53:33.737Z,81.80
2019-03-26T00:58:31.167Z,82.10
2019-03-26T01:03:27.260Z,82.60
2019-03-26T01:08:23.438Z,83.30
2019-03-26T01:13:19.612Z,84.10
2019-03-26T01:18:15.820Z,84.80
2019-03-26T01:23:11.963Z,84.50
2019-03-26T01:28:08.246Z,85.60
2019-03-26T01:33:04.490Z,85.40
2019-03-26T01:38:00.667Z,86.10
2019-03-26T01:42:57.032Z,86.90
2019-03-26T01:47:53.205Z,86.60
2019-03-26T01:52:49.324Z,86.50
2019-03-26T01:57:45.403Z,86.80
2019-03-26T02:02:41.427Z,87.00
2019-03-26T02:07:38.965Z,87.70
2019-03-26T02:12:36.245Z,88.20
2019-03-26T02:17:32.433Z,88.80
2019-03-26T02:22:28.643Z,89.60
2019-03-26T02:27:26.155Z,90.10
2019-03-26T02:32:22.273Z,90.30
2019-03-26T02:37:18.406Z,90.60
2019-03-26T02:42:14.474Z,90.80
2019-03-26T02:47:10.622Z,91.40
2019-03-26T02:52:06.621Z,91.80
2019-03-26T02:57:02.724Z,91.80
2019-03-26T03:01:58.889Z,92.20
2019-03-26T03:06:55.104Z,92.40
2019-03-26T03:11:51.206Z,92.70
2019-03-26T03:16:48.322Z,92.50
2019-03-26T03:21:44.477Z,92.40
2019-03-26T03:26:40.596Z,92.30
2019-03-26T03:31:36.617Z,92.30
2019-03-26T03:36:32.972Z,92.30
2019-03-26T03:41:29.215Z,92.50
2019-03-26T03:46:25.400Z,92.70
2019-03-26T03:51:24.977Z,93.00
2019-03-26T03:56:22.863Z,92.90
2019-03-26T04:01:18.995Z,93.30
2019-03-26T04:06:15.168Z,93.70
2019-03-26T04:11:11.396Z,93.90
2019-03-26T04:16:07.506Z,94.30
2019-03-26T04:21:03.646Z,94.90
2019-03-26T04:25:59.860Z,95.00
2019-03-26T04:30:56.012Z,95.20
2019-03-26T04:35:52.077Z,95.30
2019-03-26T04:40:48.178Z,95.70
2019-03-26T04:45:44.267Z,95.80
2019-03-26T04:50:40.296Z,95.90
2019-03-26T04:55:37.471Z,96.30
2019-03-26T05:00:33.607Z,96.40
2019-03-26T05:05:29.788Z,96.80
2019-03-26T05:10:25.981Z,97.30
2019-03-26T05:15:22.143Z,97.30
2019-03-26T05:20:18.356Z,97.80
2019-03-26T05:25:14.555Z,98.10
2019-03-26T05:30:11.182Z,98.60
2019-03-26T05:35:11.590Z,99.00
2019-03-26T05:40:11.570Z,98.80
2019-03-26T05:45:12.225Z,98.40
2019-03-26T05:50:10.965Z,98.00
2019-03-26T05:55:11.083Z,97.70
2019-03-26T06:00:11.272Z,97.00
2019-03-26T06:05:07.567Z,96.70
2019-03-26T06:10:03.658Z,96.20
2019-03-26T06:14:59.752Z,95.60
2019-03-26T06:19:55.995Z,95.40
2019-03-26T06:24:52.164Z,94.70
2019-03-26T06:29:48.549Z,94.10
2019-03-26T06:34:44.621Z,92.80
2019-03-26T06:39:41.121Z,92.40
2019-03-26T06:44:37.181Z,91.80
2019-03-26T06:49:33.371Z,90.80
2019-03-26T06:54:29.594Z,90.80
2019-03-26T06:59:25.694Z,90.50
2019-03-26T07:04:21.747Z,89.00
2019-03-26T07:09:17.941Z,86.00
2019-03-26T07:14:14.230Z,82.10
2019-03-26T07:19:10.402Z,79.10
2019-03-26T07:24:06.590Z,68.60
2019-03-26T07:29:02.680Z,67.70
2019-03-26T07:33:58.831Z,57.70
2019-03-26T07:38:54.921Z,54.80
2019-03-26T07:43:50.999Z,53.10
2019-03-26T07:48:47.062Z,52.00
2019-03-26T07:53:43.133Z,51.50
2019-03-26T07:58:39.559Z,49.20
2019-03-26T08:03:35.576Z,47.30
2019-03-26T08:08:31.664Z,46.70
2019-03-26T08:13:27.839Z,45.70
2019-03-26T08:18:24.012Z,45.20
2019-03-26T08:23:21.159Z,45.00
2019-03-26T08:28:17.306Z,43.50
2019-03-26T08:33:13.389Z,42.20
2019-03-26T08:38:12.960Z,42.50
2019-03-26T08:43:12.304Z,42.40
2019-03-26T08:48:08.805Z,42.20
2019-03-26T08:53:04.931Z,41.60
2019-03-26T08:58:01.005Z,41.80
2019-03-26T09:02:57.250Z,41.50
2019-03-26T09:07:53.453Z,41.50
2019-03-26T09:12:49.542Z,39.00
2019-03-26T09:17:45.632Z,38.00
2019-03-26T09:22:41.775Z,38.90
2019-03-26T09:27:38.394Z,36.10
2019-03-26T09:32:35.913Z,36.60
2019-03-26T09:37:32.023Z,36.80
2019-03-26T09:42:28.146Z,35.80
2019-03-26T09:47:24.396Z,36.40
2019-03-26T09:52:20.561Z,36.10
2019-03-26T09:57:16.634Z,35.50
2019-03-26T10:02:12.756Z,34.60
2019-03-26T10:07:20.978Z,33.70
2019-03-26T10:12:07.872Z,34.30
2019-03-26T10:17:04.056Z,34.20
2019-03-26T10:22:00.133Z,33.90
2019-03-26T10:26:56.395Z,33.50
2019-03-26T10:31:52.580Z,32.70
2019-03-26T10:36:49.202Z,33.30
2019-03-26T10:41:46.330Z,32.10
2019-03-26T10:46:45.276Z,31.00
2019-03-26T10:51:41.344Z,32.40
2019-03-26T10:56:37.473Z,29.10
2019-03-26T11:01:33.704Z,29.30
2019-03-26T11:06:31.879Z,28.60
2019-03-26T11:11:27.966Z,28.20
2019-03-26T11:16:24.127Z,25.90
2019-03-26T11:21:20.272Z,25.10
2019-03-26T11:26:16.336Z,25.20
2019-03-26T11:31:12.407Z,23.80
2019-03-26T11:36:08.811Z,22.90
2019-03-26T11:41:06.827Z,23.80
2019-03-26T11:46:02.836Z,24.60
2019-03-26T11:50:58.943Z,21.80
2019-03-26T11:55:55.066Z,22.70
2019-03-26T12:00:51.179Z,22.80
2019-03-26T12:05:47.329Z,23.60
2019-03-26T12:10:46.460Z,22.30
2019-03-26T12:15:42.564Z,22.90
2019-03-26T12:20:38.666Z,22.90
2019-03-26T12:25:34.958Z,22.00
2019-03-26T12:30:36.181Z,21.90
2019-03-26T12:35:32.689Z,22.00
2019-03-26T12:40:29.020Z,23.10
2019-03-26T12:45:25.363Z,22.90
2019-03-26T12:50:22.140Z,23.10
2019-03-26T12:55:18.996Z,23.00
2019-03-26T13:00:15.697Z,24.10
2019-03-26T13:05:12.137Z,24.40
2019-03-26T13:10:13.814Z,24.00
2019-03-26T13:15:06.905Z,22.70
2019-03-26T13:20:04.146Z,23.00
2019-03-26T13:25:00.374Z,24.00
2019-03-26T13:29:59.240Z,24.20
2019-03-26T13:34:56.284Z,23.90
2019-03-26T13:39:54.332Z,24.10
2019-03-26T13:44:51.277Z,23.80
2019-03-26T13:49:47.365Z,23.00
2019-03-26T13:54:43.529Z,22.30
2019-03-26T13:59:39.750Z,21.50
2019-03-26T14:04:36.007Z,21.30
2019-03-26T14:09:29.846Z,22.30
2019-03-26T14:14:25.864Z,20.20
2019-03-26T14:19:22.114Z,21.20
2019-03-26T14:24:18.365Z,20.90
2019-03-26T14:29:14.448Z,21.10
2019-03-26T14:34:10.675Z,21.50
2019-03-26T14:39:10.002Z,20.60
2019-03-26T14:44:08.140Z,20.40
2019-03-26T14:49:04.216Z,21.00
2019-03-26T14:54:00.701Z,21.50
2019-03-26T14:58:56.845Z,21.00
2019-03-26T15:03:53.073Z,20.90
2019-03-26T15:08:49.196Z,19.60
2019-03-26T15:13:45.345Z,18.10
2019-03-26T15:18:43.735Z,18.10
2019-03-26T15:23:39.846Z,17.10
2019-03-26T15:28:36.108Z,16.70
2019-03-26T15:33:33.921Z,17.30
2019-03-26T15:38:30.438Z,18.10
2019-03-26T15:43:26.670Z,17.40
2019-03-26T15:48:22.884Z,17.10
2019-03-26T15:53:19.117Z,17.20
2019-03-26T15:58:15.351Z,17.10
2019-03-26T16:03:12.641Z,17.50
2019-03-26T16:08:08.868Z,18.10
2019-03-26T16:13:05.097Z,17.90
2019-03-26T16:18:01.381Z,20.20
2019-03-26T16:22:57.579Z,22.80
2019-03-26T16:27:54.685Z,24.60
2019-03-26T16:32:50.974Z,25.10
2019-03-26T16:37:48.322Z,26.10
2019-03-26T16:42:44.604Z,26.00
2019-03-26T16:47:40.925Z,26.50
2019-03-26T16:52:37.152Z,27.30
2019-03-26T16:57:33.587Z,27.20
2019-03-26T17:02:29.860Z,27.50
2019-03-26T17:07:26.052Z,28.20
2019-03-26T17:12:22.263Z,29.30
2019-03-26T17:17:19.294Z,29.00
2019-03-26T17:22:16.852Z,28.80
2019-03-26T17:27:13.524Z,29.00
2019-03-26T17:32:10.115Z,29.40
2019-03-26T17:37:06.241Z,30.00
2019-03-26T17:42:16.203Z,30.50
2019-03-26T17:47:00.350Z,31.20
2019-03-26T17:51:56.621Z,31.50
2019-03-26T17:56:53.296Z,31.50
2019-03-26T18:01:50.478Z,31.50
2019-03-26T18:06:49.011Z,31.60
2019-03-26T18:11:45.555Z,31.80
2019-03-26T18:16:41.770Z,32.40
2019-03-26T18:21:50.885Z,32.30
2019-03-26T18:26:37.374Z,32.30
2019-03-26T18:31:38.715Z,32.70
2019-03-26T18:36:34.777Z,34.40
2019-03-26T18:41:31.725Z,35.20
2019-03-26T18:46:28.445Z,35.70
2019-03-26T18:51:25.290Z,36.50
2019-03-26T18:56:24.618Z,37.80
2019-03-26T19:01:21.976Z,39.50
2019-03-26T19:06:18.949Z,39.20
2019-03-26T19:11:15.162Z,39.30
2019-03-26T19:16:12.642Z,39.70
2019-03-26T19:21:09.334Z,40.20
2019-03-26T19:26:06.754Z,40.60
2019-03-26T19:31:03.452Z,40.80
2019-03-26T19:36:00.330Z,41.50
2019-03-26T19:40:56.557Z,41.30
2019-03-26T19:45:53.455Z,41.90
2019-03-26T19:50:50.251Z,42.90
2019-03-26T19:55:47.826Z,44.10
2019-03-26T20:00:44.079Z,44.20
2019-03-26T20:05:40.684Z,43.70
2019-03-26T20:10:37.250Z,44.50
2019-03-26T20:15:33.752Z,45.30
2019-03-26T20:20:30.265Z,45.70
2019-03-26T20:25:28.606Z,46.30
2019-03-26T20:30:26.054Z,46.70
2019-03-26T20:35:25.183Z,47.20
2019-03-26T20:40:21.509Z,48.10
2019-03-26T20:45:17.964Z,49.10
2019-03-26T20:50:15.972Z,50.00
2019-03-26T20:55:13.266Z,50.60
2019-03-26T21:00:12.068Z,51.20
2019-03-26T21:05:10.341Z,52.10
2019-03-26T21:10:07.451Z,52.40
2019-03-26T21:15:03.504Z,53.60
2019-03-26T21:19:59.873Z,53.60
2019-03-26T21:24:56.041Z,53.90
2019-03-26T21:29:52.200Z,54.60
2019-03-26T21:34:48.356Z,55.80
2019-03-26T21:39:44.426Z,56.60
2019-03-26T21:44:40.579Z,58.20
2019-03-26T21:49:37.752Z,59.30
2019-03-26T21:54:33.942Z,60.30
2019-03-26T21:59:30.214Z,60.90
2019-03-26T22:04:27.306Z,62.00
2019-03-26T22:09:23.496Z,63.40
2019-03-26T22:14:19.600Z,65.30
2019-03-26T22:19:27.823Z,66.00
2019-03-26T22:24:16.902Z,67.00
2019-03-26T22:29:11.257Z,67.40
2019-03-26T22:34:07.351Z,68.20
2019-03-26T22:39:04.722Z,68.40
2019-03-26T22:44:01.527Z,69.50
2019-03-26T22:48:57.544Z,70.50
2019-03-26T22:53:53.697Z,71.30
2019-03-26T22:58:52.508Z,71.80
2019-03-26T23:03:48.534Z,71.80
2019-03-26T23:08:45.783Z,71.80
2019-03-26T23:13:41.970Z,72.00
2019-03-26T23:18:38.090Z,72.20
2019-03-26T23:23:34.220Z,72.60
2019-03-26T23:28:30.363Z,73.00
2019-03-26T23:33:26.448Z,73.60
2019-03-26T23:38:22.580Z,74.30
2019-03-26T23:43:19.756Z,74.40
2019-03-26T23:48:16.922Z,74.50
2019-03-26T23:53:13.090Z,74.50
2019-03-26T23:58:09.176Z,74.50
